Manzanita, California
Current Conditions -  °F | °C
As of 3:53 AM on Sunday 25 Jan 2015 (Local Time) from KOVE Reporting Station
Moderate Fog Moderate Fog  
Wind Chill:   Ceiling: 100
Heat Index:   Visibility: 0.25mi
Dew Point:   Wind: 3mph
Humidity: 96%   Direction: 130°SE
Pressure: 30.21"   Gusts: NA
Location:  39.3475°N, 121.759°W
Report Text: KOVE 251153Z AUTO 13003KT 1/4SM FG VV001 05/04 A3021 RMK AO2 SLP233 T00500044 10083 20050 50004
Loading
Personal Weather Stations






























Interactive Weather Map New forecast layout! Learn more

10-Day Weather Forecast

Advertisements
Track Severe Weather on mobile